sensor_id;sensor_type;location;lat;lon;timestamp;P1;durP1;ratioP1;P2;durP2;ratioP2
51907;SDS011;39320;53.214;6.556;2023-10-09T00:00:53;2.05;;;1.70;;
51907;SDS011;39320;53.214;6.556;2023-10-09T00:05:54;2.88;;;1.33;;
51907;SDS011;39320;53.214;6.556;2023-10-09T00:08:23;3.20;;;1.67;;
51907;SDS011;39320;53.214;6.556;2023-10-09T00:10:56;2.08;;;1.52;;
51907;SDS011;39320;53.214;6.556;2023-10-09T00:13:39;2.17;;;1.35;;
51907;SDS011;39320;53.214;6.556;2023-10-09T00:16:15;2.72;;;1.30;;
51907;SDS011;39320;53.214;6.556;2023-10-09T00:18:41;3.08;;;1.40;;
51907;SDS011;39320;53.214;6.556;2023-10-09T00:21:17;2.10;;;1.77;;
51907;SDS011;39320;53.214;6.556;2023-10-09T00:23:48;2.08;;;1.65;;
51907;SDS011;39320;53.214;6.556;2023-10-09T00:26:20;2.60;;;1.92;;
51907;SDS011;39320;53.214;6.556;2023-10-09T00:28:46;3.15;;;1.80;;
51907;SDS011;39320;53.214;6.556;2023-10-09T00:31:15;2.08;;;1.60;;
51907;SDS011;39320;53.214;6.556;2023-10-09T00:33:51;3.13;;;1.75;;
51907;SDS011;39320;53.214;6.556;2023-10-09T00:36:17;2.58;;;1.70;;
51907;SDS011;39320;53.214;6.556;2023-10-09T00:38:56;4.03;;;2.25;;
51907;SDS011;39320;53.214;6.556;2023-10-09T00:41:26;2.58;;;1.80;;
51907;SDS011;39320;53.214;6.556;2023-10-09T00:43:54;3.67;;;2.38;;
51907;SDS011;39320;53.214;6.556;2023-10-09T00:46:24;3.60;;;2.20;;
51907;SDS011;39320;53.214;6.556;2023-10-09T00:48:56;3.58;;;2.42;;
51907;SDS011;39320;53.214;6.556;2023-10-09T00:51:26;3.95;;;1.98;;
51907;SDS011;39320;53.214;6.556;2023-10-09T00:54:00;2.83;;;1.98;;
51907;SDS011;39320;53.214;6.556;2023-10-09T00:56:34;2.20;;;1.83;;
51907;SDS011;39320;53.214;6.556;2023-10-09T00:59:04;2.70;;;2.28;;
51907;SDS011;39320;53.214;6.556;2023-10-09T01:01:35;2.53;;;2.08;;
51907;SDS011;39320;53.214;6.556;2023-10-09T01:04:06;4.78;;;2.40;;
51907;SDS011;39320;53.214;6.556;2023-10-09T01:06:36;2.83;;;2.40;;
51907;SDS011;39320;53.214;6.556;2023-10-09T01:09:10;3.67;;;2.53;;
51907;SDS011;39320;53.214;6.556;2023-10-09T01:11:48;3.75;;;2.53;;
51907;SDS011;39320;53.214;6.556;2023-10-09T01:14:15;4.18;;;2.53;;
51907;SDS011;39320;53.214;6.556;2023-10-09T01:16:41;4.35;;;2.90;;
51907;SDS011;39320;53.214;6.556;2023-10-09T01:19:08;5.70;;;2.78;;
51907;SDS011;39320;53.214;6.556;2023-10-09T01:21:53;4.13;;;2.88;;
51907;SDS011;39320;53.214;6.556;2023-10-09T01:24:19;3.35;;;2.20;;
51907;SDS011;39320;53.214;6.556;2023-10-09T01:26:47;3.08;;;2.70;;
51907;SDS011;39320;53.214;6.556;2023-10-09T01:29:21;3.95;;;2.70;;
51907;SDS011;39320;53.214;6.556;2023-10-09T01:31:50;4.97;;;3.13;;
51907;SDS011;39320;53.214;6.556;2023-10-09T01:34:42;4.03;;;3.00;;
51907;SDS011;39320;53.214;6.556;2023-10-09T01:37:11;4.85;;;3.38;;
51907;SDS011;39320;53.214;6.556;2023-10-09T01:39:46;3.97;;;2.97;;
51907;SDS011;39320;53.214;6.556;2023-10-09T01:45:16;4.43;;;3.67;;
51907;SDS011;39320;53.214;6.556;2023-10-09T01:47:44;5.38;;;4.20;;
51907;SDS011;39320;53.214;6.556;2023-10-09T01:50:22;4.45;;;3.63;;
51907;SDS011;39320;53.214;6.556;2023-10-09T01:53:00;5.47;;;4.00;;
51907;SDS011;39320;53.214;6.556;2023-10-09T01:55:31;5.03;;;4.15;;
51907;SDS011;39320;53.214;6.556;2023-10-09T01:58:00;4.47;;;3.97;;
51907;SDS011;39320;53.214;6.556;2023-10-09T02:00:31;5.45;;;4.53;;
51907;SDS011;39320;53.214;6.556;2023-10-09T02:03:09;6.10;;;4.80;;
51907;SDS011;39320;53.214;6.556;2023-10-09T02:05:48;6.28;;;4.40;;
51907;SDS011;39320;53.214;6.556;2023-10-09T02:08:35;5.57;;;4.60;;
51907;SDS011;39320;53.214;6.556;2023-10-09T02:11:01;5.30;;;4.60;;
51907;SDS011;39320;53.214;6.556;2023-10-09T02:13:27;5.00;;;4.50;;
51907;SDS011;39320;53.214;6.556;2023-10-09T02:15:59;5.55;;;4.82;;
51907;SDS011;39320;53.214;6.556;2023-10-09T02:18:38;7.05;;;5.03;;
51907;SDS011;39320;53.214;6.556;2023-10-09T02:21:19;6.28;;;5.28;;
51907;SDS011;39320;53.214;6.556;2023-10-09T02:24:05;7.25;;;5.03;;
51907;SDS011;39320;53.214;6.556;2023-10-09T02:26:51;5.88;;;4.65;;
51907;SDS011;39320;53.214;6.556;2023-10-09T02:29:17;6.10;;;4.47;;
51907;SDS011;39320;53.214;6.556;2023-10-09T02:31:43;6.85;;;5.28;;
51907;SDS011;39320;53.214;6.556;2023-10-09T02:34:12;6.63;;;5.22;;
51907;SDS011;39320;53.214;6.556;2023-10-09T02:36:40;7.15;;;5.63;;
51907;SDS011;39320;53.214;6.556;2023-10-09T02:39:14;6.13;;;5.50;;
51907;SDS011;39320;53.214;6.556;2023-10-09T02:41:54;7.20;;;6.40;;
51907;SDS011;39320;53.214;6.556;2023-10-09T02:44:27;6.40;;;5.63;;
51907;SDS011;39320;53.214;6.556;2023-10-09T02:47:05;6.10;;;5.50;;
51907;SDS011;39320;53.214;6.556;2023-10-09T02:49:37;6.25;;;5.65;;
51907;SDS011;39320;53.214;6.556;2023-10-09T02:52:06;6.82;;;5.80;;
51907;SDS011;39320;53.214;6.556;2023-10-09T02:54:33;8.95;;;6.65;;
51907;SDS011;39320;53.214;6.556;2023-10-09T02:57:07;6.70;;;6.00;;
51907;SDS011;39320;53.214;6.556;2023-10-09T02:59:35;6.85;;;6.15;;
51907;SDS011;39320;53.214;6.556;2023-10-09T03:02:10;6.93;;;6.22;;
51907;SDS011;39320;53.214;6.556;2023-10-09T03:04:36;6.97;;;6.28;;
51907;SDS011;39320;53.214;6.556;2023-10-09T03:07:04;7.90;;;6.55;;
51907;SDS011;39320;53.214;6.556;2023-10-09T03:09:31;7.25;;;6.55;;
51907;SDS011;39320;53.214;6.556;2023-10-09T03:11:58;8.52;;;7.22;;
51907;SDS011;39320;53.214;6.556;2023-10-09T03:14:30;6.82;;;6.15;;
51907;SDS011;39320;53.214;6.556;2023-10-09T03:16:57;8.00;;;6.97;;
51907;SDS011;39320;53.214;6.556;2023-10-09T03:19:26;8.38;;;7.30;;
51907;SDS011;39320;53.214;6.556;2023-10-09T03:21:54;9.05;;;8.25;;
51907;SDS011;39320;53.214;6.556;2023-10-09T03:24:23;8.70;;;7.20;;
51907;SDS011;39320;53.214;6.556;2023-10-09T03:26:56;8.68;;;7.22;;
51907;SDS011;39320;53.214;6.556;2023-10-09T03:29:22;8.57;;;7.78;;
51907;SDS011;39320;53.214;6.556;2023-10-09T03:31:49;10.70;;;8.30;;
51907;SDS011;39320;53.214;6.556;2023-10-09T03:34:18;9.60;;;8.70;;
51907;SDS011;39320;53.214;6.556;2023-10-09T03:36:47;8.73;;;7.90;;
51907;SDS011;39320;53.214;6.556;2023-10-09T03:39:14;10.07;;;8.98;;
51907;SDS011;39320;53.214;6.556;2023-10-09T03:42:06;9.70;;;8.80;;
51907;SDS011;39320;53.214;6.556;2023-10-09T03:44:37;8.98;;;8.18;;
51907;SDS011;39320;53.214;6.556;2023-10-09T03:47:06;9.75;;;8.75;;
51907;SDS011;39320;53.214;6.556;2023-10-09T03:49:35;9.05;;;8.15;;
51907;SDS011;39320;53.214;6.556;2023-10-09T03:52:04;10.30;;;9.20;;
51907;SDS011;39320;53.214;6.556;2023-10-09T03:54:32;9.98;;;8.98;;
51907;SDS011;39320;53.214;6.556;2023-10-09T03:57:00;9.63;;;8.68;;
51907;SDS011;39320;53.214;6.556;2023-10-09T03:59:27;10.68;;;9.68;;
51907;SDS011;39320;53.214;6.556;2023-10-09T04:01:56;9.50;;;8.60;;
51907;SDS011;39320;53.214;6.556;2023-10-09T04:04:23;10.10;;;8.70;;
51907;SDS011;39320;53.214;6.556;2023-10-09T04:06:50;9.73;;;8.43;;
51907;SDS011;39320;53.214;6.556;2023-10-09T04:09:19;9.55;;;8.55;;
51907;SDS011;39320;53.214;6.556;2023-10-09T04:11:45;9.35;;;8.43;;
51907;SDS011;39320;53.214;6.556;2023-10-09T04:14:14;10.02;;;9.00;;
51907;SDS011;39320;53.214;6.556;2023-10-09T04:16:58;9.38;;;8.38;;
51907;SDS011;39320;53.214;6.556;2023-10-09T04:19:51;8.38;;;7.47;;
51907;SDS011;39320;53.214;6.556;2023-10-09T04:22:38;8.40;;;7.60;;
51907;SDS011;39320;53.214;6.556;2023-10-09T04:25:21;9.05;;;7.68;;
51907;SDS011;39320;53.214;6.556;2023-10-09T04:28:06;8.85;;;8.05;;
51907;SDS011;39320;53.214;6.556;2023-10-09T04:30:47;8.50;;;7.13;;
51907;SDS011;39320;53.214;6.556;2023-10-09T04:33:21;8.32;;;7.45;;
51907;SDS011;39320;53.214;6.556;2023-10-09T04:36:06;7.95;;;6.80;;
51907;SDS011;39320;53.214;6.556;2023-10-09T04:38:46;8.70;;;6.82;;
51907;SDS011;39320;53.214;6.556;2023-10-09T04:41:23;7.85;;;7.05;;
51907;SDS011;39320;53.214;6.556;2023-10-09T04:44:07;8.00;;;7.18;;
51907;SDS011;39320;53.214;6.556;2023-10-09T04:46:50;7.75;;;7.05;;
51907;SDS011;39320;53.214;6.556;2023-10-09T04:49:35;6.85;;;6.15;;
51907;SDS011;39320;53.214;6.556;2023-10-09T04:52:18;7.55;;;6.75;;
51907;SDS011;39320;53.214;6.556;2023-10-09T04:55:05;7.43;;;6.72;;
51907;SDS011;39320;53.214;6.556;2023-10-09T04:57:35;8.02;;;7.32;;
51907;SDS011;39320;53.214;6.556;2023-10-09T05:00:18;6.95;;;6.25;;
51907;SDS011;39320;53.214;6.556;2023-10-09T05:03:00;7.43;;;6.03;;
51907;SDS011;39320;53.214;6.556;2023-10-09T05:05:29;7.75;;;6.80;;
51907;SDS011;39320;53.214;6.556;2023-10-09T05:08:14;6.75;;;6.10;;
51907;SDS011;39320;53.214;6.556;2023-10-09T05:10:58;8.77;;;7.07;;
51907;SDS011;39320;53.214;6.556;2023-10-09T05:13:35;8.23;;;6.80;;
51907;SDS011;39320;53.214;6.556;2023-10-09T05:16:04;7.82;;;6.80;;
51907;SDS011;39320;53.214;6.556;2023-10-09T05:18:32;7.78;;;6.97;;
51907;SDS011;39320;53.214;6.556;2023-10-09T05:21:04;7.45;;;6.65;;
51907;SDS011;39320;53.214;6.556;2023-10-09T05:24:03;7.10;;;6.40;;
51907;SDS011;39320;53.214;6.556;2023-10-09T05:31:58;7.07;;;6.38;;
51907;SDS011;39320;53.214;6.556;2023-10-09T05:34:31;7.60;;;5.85;;
51907;SDS011;39320;53.214;6.556;2023-10-09T05:37:06;6.78;;;5.63;;
51907;SDS011;39320;53.214;6.556;2023-10-09T05:39:53;6.38;;;5.63;;
51907;SDS011;39320;53.214;6.556;2023-10-09T05:42:43;6.10;;;5.50;;
51907;SDS011;39320;53.214;6.556;2023-10-09T05:47:52;6.50;;;4.90;;
51907;SDS011;39320;53.214;6.556;2023-10-09T05:50:23;6.05;;;5.38;;
51907;SDS011;39320;53.214;6.556;2023-10-09T05:52:53;6.03;;;4.63;;
51907;SDS011;39320;53.214;6.556;2023-10-09T05:55:20;5.50;;;4.22;;
51907;SDS011;39320;53.214;6.556;2023-10-09T05:57:58;4.72;;;4.20;;
51907;SDS011;39320;53.214;6.556;2023-10-09T06:00:42;5.28;;;3.63;;
51907;SDS011;39320;53.214;6.556;2023-10-09T06:03:27;6.03;;;3.95;;
51907;SDS011;39320;53.214;6.556;2023-10-09T06:09:02;5.95;;;3.53;;
51907;SDS011;39320;53.214;6.556;2023-10-09T06:11:38;7.20;;;4.32;;
51907;SDS011;39320;53.214;6.556;2023-10-09T06:14:05;6.22;;;3.85;;
51907;SDS011;39320;53.214;6.556;2023-10-09T06:16:37;4.18;;;3.65;;
51907;SDS011;39320;53.214;6.556;2023-10-09T06:19:08;6.13;;;3.97;;
51907;SDS011;39320;53.214;6.556;2023-10-09T06:21:45;5.93;;;4.13;;
51907;SDS011;39320;53.214;6.556;2023-10-09T06:24:18;4.28;;;3.60;;
51907;SDS011;39320;53.214;6.556;2023-10-09T06:26:44;6.30;;;4.07;;
51907;SDS011;39320;53.214;6.556;2023-10-09T06:29:38;4.80;;;3.88;;
51907;SDS011;39320;53.214;6.556;2023-10-09T06:32:14;6.40;;;3.85;;
51907;SDS011;39320;53.214;6.556;2023-10-09T06:34:43;4.78;;;3.47;;
51907;SDS011;39320;53.214;6.556;2023-10-09T06:37:24;4.13;;;3.20;;
51907;SDS011;39320;53.214;6.556;2023-10-09T06:39:50;3.75;;;3.20;;
51907;SDS011;39320;53.214;6.556;2023-10-09T06:42:20;5.10;;;4.00;;
51907;SDS011;39320;53.214;6.556;2023-10-09T06:45:02;3.78;;;3.17;;
51907;SDS011;39320;53.214;6.556;2023-10-09T06:47:41;4.45;;;3.53;;
51907;SDS011;39320;53.214;6.556;2023-10-09T06:50:19;5.00;;;3.03;;
51907;SDS011;39320;53.214;6.556;2023-10-09T06:52:48;4.75;;;3.17;;
51907;SDS011;39320;53.214;6.556;2023-10-09T06:55:23;5.60;;;3.83;;
51907;SDS011;39320;53.214;6.556;2023-10-09T06:58:04;8.77;;;3.83;;
51907;SDS011;39320;53.214;6.556;2023-10-09T07:00:40;4.70;;;3.88;;
51907;SDS011;39320;53.214;6.556;2023-10-09T07:03:25;5.03;;;3.67;;
51907;SDS011;39320;53.214;6.556;2023-10-09T07:06:05;4.32;;;3.40;;
51907;SDS011;39320;53.214;6.556;2023-10-09T07:08:38;4.10;;;3.65;;
51907;SDS011;39320;53.214;6.556;2023-10-09T07:11:09;6.20;;;3.60;;
51907;SDS011;39320;53.214;6.556;2023-10-09T07:19:29;5.03;;;3.45;;
51907;SDS011;39320;53.214;6.556;2023-10-09T07:22:08;4.82;;;3.38;;
51907;SDS011;39320;53.214;6.556;2023-10-09T07:24:46;5.47;;;4.15;;
51907;SDS011;39320;53.214;6.556;2023-10-09T07:27:31;6.22;;;4.13;;
51907;SDS011;39320;53.214;6.556;2023-10-09T07:30:10;4.35;;;3.95;;
51907;SDS011;39320;53.214;6.556;2023-10-09T07:33:00;4.82;;;3.47;;
51907;SDS011;39320;53.214;6.556;2023-10-09T07:35:43;6.20;;;4.18;;
51907;SDS011;39320;53.214;6.556;2023-10-09T07:38:10;5.45;;;3.42;;
51907;SDS011;39320;53.214;6.556;2023-10-09T07:40:44;5.05;;;3.85;;
51907;SDS011;39320;53.214;6.556;2023-10-09T07:43:32;7.10;;;3.40;;
51907;SDS011;39320;53.214;6.556;2023-10-09T07:46:09;6.15;;;4.05;;
51907;SDS011;39320;53.214;6.556;2023-10-09T07:48:58;6.38;;;3.42;;
51907;SDS011;39320;53.214;6.556;2023-10-09T07:51:33;5.10;;;3.83;;
51907;SDS011;39320;53.214;6.556;2023-10-09T07:54:03;4.20;;;3.80;;
51907;SDS011;39320;53.214;6.556;2023-10-09T07:56:40;3.88;;;3.00;;
51907;SDS011;39320;53.214;6.556;2023-10-09T07:59:09;4.32;;;3.28;;
51907;SDS011;39320;53.214;6.556;2023-10-09T08:04:28;5.20;;;3.30;;
51907;SDS011;39320;53.214;6.556;2023-10-09T08:07:13;3.88;;;2.90;;
51907;SDS011;39320;53.214;6.556;2023-10-09T08:09:54;5.95;;;3.60;;
51907;SDS011;39320;53.214;6.556;2023-10-09T08:12:40;4.18;;;3.08;;
51907;SDS011;39320;53.214;6.556;2023-10-09T08:15:12;4.78;;;3.42;;
51907;SDS011;39320;53.214;6.556;2023-10-09T08:17:47;4.90;;;3.35;;
51907;SDS011;39320;53.214;6.556;2023-10-09T08:20:25;4.82;;;3.33;;
51907;SDS011;39320;53.214;6.556;2023-10-09T08:22:53;4.45;;;3.70;;
51907;SDS011;39320;53.214;6.556;2023-10-09T08:25:23;6.72;;;3.60;;
51907;SDS011;39320;53.214;6.556;2023-10-09T08:28:01;5.63;;;3.50;;
51907;SDS011;39320;53.214;6.556;2023-10-09T08:30:39;4.28;;;3.60;;
51907;SDS011;39320;53.214;6.556;2023-10-09T08:33:19;5.47;;;3.38;;
51907;SDS011;39320;53.214;6.556;2023-10-09T08:35:51;4.80;;;3.25;;
51907;SDS011;39320;53.214;6.556;2023-10-09T08:38:27;5.05;;;3.35;;
51907;SDS011;39320;53.214;6.556;2023-10-09T08:41:05;4.45;;;3.47;;
51907;SDS011;39320;53.214;6.556;2023-10-09T08:43:50;4.63;;;3.70;;
51907;SDS011;39320;53.214;6.556;2023-10-09T08:46:20;4.97;;;3.63;;
51907;SDS011;39320;53.214;6.556;2023-10-09T08:48:47;5.07;;;3.95;;
51907;SDS011;39320;53.214;6.556;2023-10-09T08:51:17;8.35;;;4.40;;
51907;SDS011;39320;53.214;6.556;2023-10-09T08:53:45;5.53;;;3.78;;
51907;SDS011;39320;53.214;6.556;2023-10-09T08:56:12;4.47;;;3.78;;
51907;SDS011;39320;53.214;6.556;2023-10-09T08:58:47;4.45;;;3.72;;
51907;SDS011;39320;53.214;6.556;2023-10-09T09:01:17;4.25;;;3.67;;
51907;SDS011;39320;53.214;6.556;2023-10-09T09:03:47;5.65;;;3.88;;
51907;SDS011;39320;53.214;6.556;2023-10-09T09:06:20;4.90;;;3.95;;
51907;SDS011;39320;53.214;6.556;2023-10-09T09:08:48;5.38;;;3.50;;
51907;SDS011;39320;53.214;6.556;2023-10-09T09:11:20;4.75;;;4.28;;
51907;SDS011;39320;53.214;6.556;2023-10-09T09:16:31;3.75;;;3.35;;
51907;SDS011;39320;53.214;6.556;2023-10-09T09:21:35;5.35;;;2.80;;
51907;SDS011;39320;53.214;6.556;2023-10-09T09:24:05;3.83;;;3.05;;
51907;SDS011;39320;53.214;6.556;2023-10-09T09:26:49;3.97;;;3.28;;
51907;SDS011;39320;53.214;6.556;2023-10-09T09:29:24;5.38;;;3.55;;
51907;SDS011;39320;53.214;6.556;2023-10-09T09:32:04;5.38;;;3.80;;
51907;SDS011;39320;53.214;6.556;2023-10-09T09:34:55;5.40;;;3.83;;
51907;SDS011;39320;53.214;6.556;2023-10-09T09:37:30;5.15;;;3.80;;
51907;SDS011;39320;53.214;6.556;2023-10-09T09:40:15;4.50;;;3.72;;
51907;SDS011;39320;53.214;6.556;2023-10-09T09:43:02;4.55;;;3.20;;
51907;SDS011;39320;53.214;6.556;2023-10-09T09:45:32;4.85;;;3.35;;
51907;SDS011;39320;53.214;6.556;2023-10-09T09:48:01;3.80;;;3.38;;
51907;SDS011;39320;53.214;6.556;2023-10-09T09:50:32;4.93;;;3.55;;
51907;SDS011;39320;53.214;6.556;2023-10-09T09:52:58;6.10;;;3.42;;
51907;SDS011;39320;53.214;6.556;2023-10-09T09:55:26;5.60;;;3.58;;
51907;SDS011;39320;53.214;6.556;2023-10-09T09:57:59;4.57;;;3.58;;
51907;SDS011;39320;53.214;6.556;2023-10-09T10:00:33;4.00;;;3.05;;
51907;SDS011;39320;53.214;6.556;2023-10-09T10:03:14;4.80;;;3.22;;
51907;SDS011;39320;53.214;6.556;2023-10-09T10:05:58;6.80;;;3.20;;
51907;SDS011;39320;53.214;6.556;2023-10-09T10:08:30;3.92;;;2.55;;
51907;SDS011;39320;53.214;6.556;2023-10-09T10:10:58;4.95;;;2.70;;
51907;SDS011;39320;53.214;6.556;2023-10-09T10:16:06;3.65;;;2.25;;
51907;SDS011;39320;53.214;6.556;2023-10-09T10:18:55;4.50;;;2.65;;
51907;SDS011;39320;53.214;6.556;2023-10-09T10:21:35;3.58;;;2.42;;
51907;SDS011;39320;53.214;6.556;2023-10-09T10:35:18;2.70;;;2.38;;
51907;SDS011;39320;53.214;6.556;2023-10-09T10:38:12;3.55;;;2.33;;
51907;SDS011;39320;53.214;6.556;2023-10-09T10:40:47;3.97;;;2.60;;
51907;SDS011;39320;53.214;6.556;2023-10-09T10:46:02;3.50;;;2.40;;
51907;SDS011;39320;53.214;6.556;2023-10-09T10:48:54;3.55;;;2.25;;
51907;SDS011;39320;53.214;6.556;2023-10-09T10:51:43;4.22;;;2.60;;
51907;SDS011;39320;53.214;6.556;2023-10-09T10:54:24;4.47;;;2.40;;
51907;SDS011;39320;53.214;6.556;2023-10-09T10:57:20;4.63;;;2.58;;
51907;SDS011;39320;53.214;6.556;2023-10-09T11:00:09;3.88;;;2.75;;
51907;SDS011;39320;53.214;6.556;2023-10-09T11:02:59;3.97;;;2.80;;
51907;SDS011;39320;53.214;6.556;2023-10-09T11:05:44;5.33;;;2.83;;
51907;SDS011;39320;53.214;6.556;2023-10-09T11:08:23;4.53;;;2.72;;
51907;SDS011;39320;53.214;6.556;2023-10-09T11:11:10;4.60;;;2.85;;
51907;SDS011;39320;53.214;6.556;2023-10-09T11:13:44;4.65;;;2.65;;
51907;SDS011;39320;53.214;6.556;2023-10-09T11:16:30;3.58;;;2.50;;
51907;SDS011;39320;53.214;6.556;2023-10-09T11:19:11;5.13;;;2.85;;
51907;SDS011;39320;53.214;6.556;2023-10-09T11:21:49;4.85;;;2.50;;
51907;SDS011;39320;53.214;6.556;2023-10-09T11:24:24;6.55;;;2.60;;
51907;SDS011;39320;53.214;6.556;2023-10-09T11:26:52;5.85;;;2.45;;
51907;SDS011;39320;53.214;6.556;2023-10-09T11:29:23;3.95;;;2.10;;
51907;SDS011;39320;53.214;6.556;2023-10-09T11:32:19;4.80;;;2.33;;
51907;SDS011;39320;53.214;6.556;2023-10-09T11:37:36;3.78;;;2.20;;
51907;SDS011;39320;53.214;6.556;2023-10-09T11:40:17;4.15;;;2.33;;
51907;SDS011;39320;53.214;6.556;2023-10-09T11:43:19;4.50;;;2.38;;
51907;SDS011;39320;53.214;6.556;2023-10-09T11:46:10;2.65;;;1.83;;
51907;SDS011;39320;53.214;6.556;2023-10-09T11:49:05;5.80;;;2.00;;
51907;SDS011;39320;53.214;6.556;2023-10-09T11:51:47;2.28;;;1.48;;
51907;SDS011;39320;53.214;6.556;2023-10-09T11:54:36;2.85;;;1.73;;
51907;SDS011;39320;53.214;6.556;2023-10-09T11:57:03;5.90;;;1.65;;
51907;SDS011;39320;53.214;6.556;2023-10-09T11:59:32;3.75;;;2.05;;
51907;SDS011;39320;53.214;6.556;2023-10-09T12:02:04;2.55;;;1.63;;
51907;SDS011;39320;53.214;6.556;2023-10-09T12:04:30;2.85;;;1.90;;
51907;SDS011;39320;53.214;6.556;2023-10-09T12:07:00;3.67;;;2.20;;
51907;SDS011;39320;53.214;6.556;2023-10-09T12:09:38;3.95;;;2.30;;
51907;SDS011;39320;53.214;6.556;2023-10-09T12:12:09;2.90;;;1.73;;
51907;SDS011;39320;53.214;6.556;2023-10-09T12:14:38;3.28;;;1.90;;
51907;SDS011;39320;53.214;6.556;2023-10-09T12:17:07;3.83;;;2.08;;
51907;SDS011;39320;53.214;6.556;2023-10-09T12:20:05;3.65;;;1.75;;
51907;SDS011;39320;53.214;6.556;2023-10-09T12:22:39;3.47;;;1.77;;
51907;SDS011;39320;53.214;6.556;2023-10-09T12:25:06;3.42;;;1.42;;
51907;SDS011;39320;53.214;6.556;2023-10-09T12:27:35;2.90;;;1.30;;
51907;SDS011;39320;53.214;6.556;2023-10-09T12:30:03;4.50;;;1.63;;
51907;SDS011;39320;53.214;6.556;2023-10-09T12:32:30;2.35;;;1.83;;
51907;SDS011;39320;53.214;6.556;2023-10-09T12:35:01;2.35;;;1.48;;
51907;SDS011;39320;53.214;6.556;2023-10-09T12:37:27;3.00;;;1.50;;
51907;SDS011;39320;53.214;6.556;2023-10-09T12:39:56;4.22;;;1.80;;
51907;SDS011;39320;53.214;6.556;2023-10-09T12:42:22;2.45;;;1.80;;
51907;SDS011;39320;53.214;6.556;2023-10-09T12:44:48;3.45;;;1.90;;
51907;SDS011;39320;53.214;6.556;2023-10-09T12:47:14;3.15;;;1.67;;
51907;SDS011;39320;53.214;6.556;2023-10-09T12:49:40;2.00;;;1.25;;
51907;SDS011;39320;53.214;6.556;2023-10-09T12:52:06;2.97;;;1.63;;
51907;SDS011;39320;53.214;6.556;2023-10-09T12:54:42;1.73;;;1.23;;
51907;SDS011;39320;53.214;6.556;2023-10-09T12:57:09;3.50;;;1.40;;
51907;SDS011;39320;53.214;6.556;2023-10-09T12:59:41;2.40;;;1.77;;
51907;SDS011;39320;53.214;6.556;2023-10-09T13:02:14;2.67;;;1.40;;
51907;SDS011;39320;53.214;6.556;2023-10-09T13:04:56;2.83;;;1.50;;
51907;SDS011;39320;53.214;6.556;2023-10-09T13:07:22;2.78;;;1.40;;
51907;SDS011;39320;53.214;6.556;2023-10-09T13:09:51;2.10;;;1.60;;
51907;SDS011;39320;53.214;6.556;2023-10-09T13:12:40;4.20;;;1.80;;
51907;SDS011;39320;53.214;6.556;2023-10-09T13:15:09;3.22;;;1.42;;
51907;SDS011;39320;53.214;6.556;2023-10-09T13:17:36;1.98;;;1.25;;
51907;SDS011;39320;53.214;6.556;2023-10-09T13:20:15;2.35;;;1.75;;
51907;SDS011;39320;53.214;6.556;2023-10-09T13:22:44;2.67;;;1.30;;
51907;SDS011;39320;53.214;6.556;2023-10-09T13:25:13;2.20;;;1.65;;
51907;SDS011;39320;53.214;6.556;2023-10-09T13:27:42;2.40;;;1.35;;
51907;SDS011;39320;53.214;6.556;2023-10-09T13:30:16;3.08;;;1.65;;
51907;SDS011;39320;53.214;6.556;2023-10-09T13:32:51;2.67;;;1.08;;
51907;SDS011;39320;53.214;6.556;2023-10-09T13:35:22;2.63;;;1.63;;
51907;SDS011;39320;53.214;6.556;2023-10-09T13:38:02;2.05;;;1.23;;
51907;SDS011;39320;53.214;6.556;2023-10-09T13:40:33;3.40;;;1.17;;
51907;SDS011;39320;53.214;6.556;2023-10-09T13:43:02;2.17;;;1.40;;
51907;SDS011;39320;53.214;6.556;2023-10-09T13:45:28;3.13;;;1.48;;
51907;SDS011;39320;53.214;6.556;2023-10-09T13:47:58;2.42;;;1.45;;
51907;SDS011;39320;53.214;6.556;2023-10-09T13:50:28;3.28;;;1.70;;
51907;SDS011;39320;53.214;6.556;2023-10-09T13:52:57;4.40;;;1.75;;
51907;SDS011;39320;53.214;6.556;2023-10-09T13:55:24;2.33;;;1.30;;
51907;SDS011;39320;53.214;6.556;2023-10-09T13:57:57;3.80;;;1.50;;
51907;SDS011;39320;53.214;6.556;2023-10-09T14:00:23;2.53;;;1.70;;
51907;SDS011;39320;53.214;6.556;2023-10-09T14:03:03;1.88;;;1.30;;
51907;SDS011;39320;53.214;6.556;2023-10-09T14:05:44;2.90;;;1.20;;
51907;SDS011;39320;53.214;6.556;2023-10-09T14:08:22;3.00;;;1.27;;
51907;SDS011;39320;53.214;6.556;2023-10-09T14:10:54;3.47;;;1.10;;
51907;SDS011;39320;53.214;6.556;2023-10-09T14:13:20;2.88;;;1.23;;
51907;SDS011;39320;53.214;6.556;2023-10-09T14:15:53;3.28;;;1.40;;
51907;SDS011;39320;53.214;6.556;2023-10-09T14:18:20;2.25;;;1.15;;
51907;SDS011;39320;53.214;6.556;2023-10-09T14:20:46;2.92;;;1.08;;
51907;SDS011;39320;53.214;6.556;2023-10-09T14:23:12;1.77;;;0.90;;
51907;SDS011;39320;53.214;6.556;2023-10-09T14:25:48;4.32;;;1.88;;
51907;SDS011;39320;53.214;6.556;2023-10-09T14:28:27;3.20;;;0.95;;
51907;SDS011;39320;53.214;6.556;2023-10-09T14:30:57;2.03;;;1.25;;
51907;SDS011;39320;53.214;6.556;2023-10-09T14:33:25;5.88;;;1.48;;
51907;SDS011;39320;53.214;6.556;2023-10-09T14:35:54;1.70;;;1.10;;
51907;SDS011;39320;53.214;6.556;2023-10-09T14:38:20;2.75;;;1.08;;
51907;SDS011;39320;53.214;6.556;2023-10-09T14:40:52;2.45;;;1.00;;
51907;SDS011;39320;53.214;6.556;2023-10-09T14:43:22;2.90;;;1.42;;
51907;SDS011;39320;53.214;6.556;2023-10-09T14:45:58;2.83;;;1.40;;
51907;SDS011;39320;53.214;6.556;2023-10-09T14:48:24;2.25;;;1.05;;
51907;SDS011;39320;53.214;6.556;2023-10-09T14:50:54;3.83;;;1.20;;
51907;SDS011;39320;53.214;6.556;2023-10-09T14:53:29;3.15;;;1.35;;
51907;SDS011;39320;53.214;6.556;2023-10-09T14:55:58;3.40;;;1.40;;
51907;SDS011;39320;53.214;6.556;2023-10-09T14:58:26;3.53;;;1.20;;
51907;SDS011;39320;53.214;6.556;2023-10-09T15:00:54;2.53;;;1.10;;
51907;SDS011;39320;53.214;6.556;2023-10-09T15:03:21;3.13;;;1.15;;
51907;SDS011;39320;53.214;6.556;2023-10-09T15:05:48;2.92;;;1.10;;
51907;SDS011;39320;53.214;6.556;2023-10-09T15:08:14;3.22;;;1.95;;
51907;SDS011;39320;53.214;6.556;2023-10-09T15:10:59;2.30;;;1.58;;
51907;SDS011;39320;53.214;6.556;2023-10-09T15:13:25;1.83;;;1.10;;
51907;SDS011;39320;53.214;6.556;2023-10-09T15:15:54;1.60;;;1.00;;
51907;SDS011;39320;53.214;6.556;2023-10-09T15:18:23;2.42;;;1.27;;
51907;SDS011;39320;53.214;6.556;2023-10-09T15:20:53;3.42;;;1.30;;
51907;SDS011;39320;53.214;6.556;2023-10-09T15:23:22;2.58;;;0.98;;
51907;SDS011;39320;53.214;6.556;2023-10-09T15:25:51;2.63;;;1.23;;
51907;SDS011;39320;53.214;6.556;2023-10-09T15:28:23;2.33;;;1.30;;
51907;SDS011;39320;53.214;6.556;2023-10-09T15:30:52;3.13;;;1.10;;
51907;SDS011;39320;53.214;6.556;2023-10-09T15:33:24;3.22;;;1.30;;
51907;SDS011;39320;53.214;6.556;2023-10-09T15:35:56;4.32;;;1.38;;
51907;SDS011;39320;53.214;6.556;2023-10-09T15:38:22;2.25;;;1.02;;
51907;SDS011;39320;53.214;6.556;2023-10-09T15:40:50;2.08;;;1.60;;
51907;SDS011;39320;53.214;6.556;2023-10-09T15:43:16;1.73;;;1.08;;
51907;SDS011;39320;53.214;6.556;2023-10-09T15:45:43;4.00;;;1.35;;
51907;SDS011;39320;53.214;6.556;2023-10-09T15:48:15;3.33;;;1.00;;
51907;SDS011;39320;53.214;6.556;2023-10-09T15:50:44;1.67;;;0.82;;
51907;SDS011;39320;53.214;6.556;2023-10-09T15:53:14;1.88;;;1.23;;
51907;SDS011;39320;53.214;6.556;2023-10-09T15:55:44;3.55;;;1.20;;
51907;SDS011;39320;53.214;6.556;2023-10-09T15:58:11;1.73;;;0.85;;
51907;SDS011;39320;53.214;6.556;2023-10-09T16:00:37;2.30;;;1.00;;
51907;SDS011;39320;53.214;6.556;2023-10-09T16:03:04;2.05;;;0.98;;
51907;SDS011;39320;53.214;6.556;2023-10-09T16:05:35;2.05;;;0.75;;
51907;SDS011;39320;53.214;6.556;2023-10-09T16:08:04;2.50;;;0.98;;
51907;SDS011;39320;53.214;6.556;2023-10-09T16:10:31;1.00;;;0.70;;
51907;SDS011;39320;53.214;6.556;2023-10-09T16:13:18;1.08;;;0.60;;
51907;SDS011;39320;53.214;6.556;2023-10-09T16:16:06;0.90;;;0.55;;
51907;SDS011;39320;53.214;6.556;2023-10-09T16:18:35;1.83;;;0.60;;